createdAt,value
2022-07-27T00:01:50.919Z,17.20
2022-07-27T00:04:19.130Z,17.11
2022-07-27T00:06:46.707Z,17.10
2022-07-27T00:09:13.625Z,17.08
2022-07-27T00:11:40.757Z,17.12
2022-07-27T00:14:07.423Z,17.00
2022-07-27T00:16:34.178Z,16.98
2022-07-27T00:19:01.086Z,16.95
2022-07-27T00:21:27.845Z,16.99
2022-07-27T00:23:55.245Z,17.02
2022-07-27T00:26:22.255Z,16.88
2022-07-27T00:28:49.395Z,16.98
2022-07-27T00:31:16.441Z,16.90
2022-07-27T00:33:43.172Z,16.92
2022-07-27T00:36:09.830Z,16.71
2022-07-27T00:38:36.496Z,16.72
2022-07-27T00:41:03.304Z,16.74
2022-07-27T00:43:30.002Z,16.80
2022-07-27T00:45:56.656Z,16.74
2022-07-27T00:48:23.315Z,16.58
2022-07-27T00:50:51.906Z,16.46
2022-07-27T00:53:18.544Z,16.44
2022-07-27T00:55:45.646Z,16.47
2022-07-27T00:58:12.602Z,16.41
2022-07-27T01:00:39.370Z,16.41
2022-07-27T01:03:09.215Z,16.36
2022-07-27T01:05:42.453Z,16.28
2022-07-27T01:08:12.245Z,16.25
2022-07-27T01:10:39.946Z,16.28
2022-07-27T01:13:06.614Z,16.35
2022-07-27T01:15:39.925Z,16.30
2022-07-27T01:18:19.619Z,16.33
2022-07-27T01:20:46.233Z,16.44
2022-07-27T01:23:12.937Z,16.37
2022-07-27T01:25:41.461Z,16.35
2022-07-27T01:28:08.154Z,16.36
2022-07-27T01:30:35.637Z,16.38
2022-07-27T01:33:09.329Z,16.21
2022-07-27T01:35:37.818Z,16.17
2022-07-27T01:38:05.284Z,15.96
2022-07-27T01:40:32.023Z,15.98
2022-07-27T01:42:58.703Z,16.10
2022-07-27T01:45:25.796Z,15.95
2022-07-27T01:47:52.496Z,16.05
2022-07-27T01:50:19.105Z,16.00
2022-07-27T01:52:45.814Z,15.95
2022-07-27T01:55:12.529Z,15.95
2022-07-27T01:57:39.346Z,16.06
2022-07-27T02:00:08.478Z,15.96
2022-07-27T02:02:35.121Z,15.75
2022-07-27T02:05:02.071Z,15.74
2022-07-27T02:07:28.799Z,15.70
2022-07-27T02:09:55.457Z,15.73
2022-07-27T02:12:37.137Z,15.68
2022-07-27T02:15:05.512Z,15.71
2022-07-27T02:17:32.782Z,15.74
2022-07-27T02:19:59.459Z,15.82
2022-07-27T02:22:26.134Z,15.85
2022-07-27T02:24:52.778Z,15.77
2022-07-27T02:27:19.387Z,15.69
2022-07-27T02:29:46.194Z,15.65
2022-07-27T02:32:12.831Z,15.63
2022-07-27T02:34:39.511Z,15.66
2022-07-27T02:37:06.167Z,15.70
2022-07-27T02:39:32.851Z,15.75
2022-07-27T02:41:59.510Z,15.80
2022-07-27T02:44:26.236Z,15.83
2022-07-27T02:46:52.823Z,15.88
2022-07-27T02:49:19.541Z,15.93
2022-07-27T02:51:50.369Z,15.81
2022-07-27T02:54:17.168Z,15.74
2022-07-27T02:56:43.851Z,15.77
2022-07-27T02:59:10.754Z,15.79
2022-07-27T03:01:38.206Z,15.77
2022-07-27T03:04:05.074Z,15.88
2022-07-27T03:06:31.730Z,15.80
2022-07-27T03:08:58.400Z,15.67
2022-07-27T03:11:25.131Z,15.64
2022-07-27T03:13:51.775Z,15.72
2022-07-27T03:16:18.479Z,15.77
2022-07-27T03:18:45.126Z,15.83
2022-07-27T03:21:11.844Z,15.92
2022-07-27T03:23:38.440Z,16.00
2022-07-27T03:26:07.350Z,16.08
2022-07-27T03:28:34.064Z,16.05
2022-07-27T03:31:00.753Z,15.89
2022-07-27T03:33:27.407Z,15.92
2022-07-27T03:35:54.077Z,15.78
2022-07-27T03:38:20.774Z,15.80
2022-07-27T03:40:47.406Z,15.87
2022-07-27T03:43:14.026Z,15.89
2022-07-27T03:45:40.899Z,15.84
2022-07-27T03:48:07.632Z,15.95
2022-07-27T03:50:34.331Z,15.87
2022-07-27T03:53:01.024Z,15.80
2022-07-27T03:55:27.863Z,15.94
2022-07-27T03:57:54.682Z,15.89
2022-07-27T04:00:21.625Z,15.93
2022-07-27T04:02:48.451Z,16.08
2022-07-27T04:05:15.500Z,16.15
2022-07-27T04:07:42.207Z,16.17
2022-07-27T04:10:09.691Z,16.27
2022-07-27T04:12:38.592Z,16.28
2022-07-27T04:15:07.079Z,16.35
2022-07-27T04:17:55.962Z,16.20
2022-07-27T04:20:20.527Z,16.23
2022-07-27T04:22:47.224Z,16.26
2022-07-27T04:25:14.001Z,16.30
2022-07-27T04:27:40.784Z,16.32
2022-07-27T04:30:09.708Z,16.26
2022-07-27T04:32:36.613Z,16.35
2022-07-27T04:35:03.457Z,16.44
2022-07-27T04:37:30.353Z,16.44
2022-07-27T04:39:58.041Z,16.52
2022-07-27T04:42:25.149Z,16.49
2022-07-27T04:44:51.888Z,16.51
2022-07-27T04:47:19.127Z,16.53
2022-07-27T04:49:45.839Z,16.61
2022-07-27T04:52:15.317Z,16.66
2022-07-27T04:54:42.209Z,16.55
2022-07-27T04:57:08.925Z,16.43
2022-07-27T04:59:35.554Z,16.50
2022-07-27T05:02:02.354Z,16.52
2022-07-27T05:04:29.055Z,16.62
2022-07-27T05:06:57.090Z,16.69
2022-07-27T05:09:23.759Z,16.72
2022-07-27T05:11:51.708Z,16.54
2022-07-27T05:14:19.789Z,16.55
2022-07-27T05:16:48.556Z,16.49
2022-07-27T05:19:15.711Z,16.52
2022-07-27T05:21:42.972Z,16.66
2022-07-27T05:24:10.375Z,16.59
2022-07-27T05:26:37.906Z,16.60
2022-07-27T05:29:05.033Z,16.72
2022-07-27T05:31:31.803Z,16.81
2022-07-27T05:33:58.842Z,16.94
2022-07-27T05:36:26.146Z,16.95
2022-07-27T05:38:52.993Z,16.99
2022-07-27T05:41:24.938Z,17.05
2022-07-27T05:43:52.889Z,17.06
2022-07-27T05:46:19.540Z,17.07
2022-07-27T05:48:46.452Z,17.04
2022-07-27T05:51:13.265Z,16.99
2022-07-27T05:53:40.177Z,16.99
2022-07-27T05:56:10.092Z,17.05
2022-07-27T05:58:36.833Z,17.04
2022-07-27T06:01:03.935Z,17.05
2022-07-27T06:03:31.164Z,17.07
2022-07-27T06:06:18.285Z,17.11
2022-07-27T06:08:45.107Z,17.09
2022-07-27T06:11:12.009Z,17.09
2022-07-27T06:13:42.210Z,17.11
2022-07-27T06:16:09.998Z,17.14
2022-07-27T06:18:36.968Z,17.18
2022-07-27T06:21:04.815Z,17.20
2022-07-27T06:23:31.666Z,17.40
2022-07-27T06:25:58.474Z,17.48
2022-07-27T06:28:25.304Z,17.37
2022-07-27T06:30:53.714Z,17.36
2022-07-27T06:33:39.094Z,17.38
2022-07-27T06:36:08.426Z,17.24
2022-07-27T06:38:35.328Z,17.38
2022-07-27T06:41:02.351Z,17.36
2022-07-27T06:43:31.850Z,17.13
2022-07-27T06:45:59.477Z,17.15
2022-07-27T06:48:26.499Z,17.12
2022-07-27T06:50:53.354Z,17.11
2022-07-27T06:53:21.594Z,17.11
2022-07-27T06:55:50.117Z,17.10
2022-07-27T06:58:17.234Z,17.13
2022-07-27T07:00:44.138Z,17.18
2022-07-27T07:03:11.444Z,17.14
2022-07-27T07:05:46.624Z,17.21
2022-07-27T07:08:14.835Z,17.09
2022-07-27T07:10:43.698Z,17.14
2022-07-27T07:13:11.102Z,17.00
2022-07-27T07:15:39.324Z,16.87
2022-07-27T07:18:07.776Z,16.94
2022-07-27T07:20:35.354Z,16.93
2022-07-27T07:23:02.335Z,16.80
2022-07-27T07:25:29.494Z,16.75
2022-07-27T07:27:56.553Z,16.65
2022-07-27T07:30:23.594Z,16.80
2022-07-27T07:32:50.522Z,16.78
2022-07-27T07:35:17.554Z,16.73
2022-07-27T07:37:44.298Z,16.68
2022-07-27T07:43:00.597Z,16.61
2022-07-27T07:45:28.445Z,16.73
2022-07-27T07:47:56.045Z,16.80
2022-07-27T07:50:23.274Z,16.82
2022-07-27T07:52:51.395Z,16.76
2022-07-27T07:55:24.145Z,16.78
2022-07-27T07:57:52.083Z,16.82
2022-07-27T08:00:19.620Z,16.87
2022-07-27T08:02:59.925Z,16.93
2022-07-27T08:05:27.456Z,16.99
2022-07-27T08:07:54.770Z,16.83
2022-07-27T08:10:23.041Z,16.81
2022-07-27T08:12:53.104Z,16.82
2022-07-27T08:15:20.265Z,16.94
2022-07-27T08:17:48.525Z,17.00
2022-07-27T08:20:16.513Z,17.07
2022-07-27T08:22:45.282Z,16.85
2022-07-27T08:25:13.239Z,16.68
2022-07-27T08:27:40.949Z,16.72
2022-07-27T08:30:09.355Z,16.82
2022-07-27T08:33:05.845Z,16.89
2022-07-27T08:35:33.954Z,16.82
2022-07-27T08:38:02.099Z,17.04
2022-07-27T08:40:46.218Z,17.07
2022-07-27T08:43:24.454Z,17.12
2022-07-27T08:46:01.435Z,17.63
2022-07-27T08:48:31.024Z,17.43
2022-07-27T08:50:58.249Z,17.60
2022-07-27T08:53:25.590Z,17.59
2022-07-27T08:55:52.686Z,17.94
2022-07-27T08:58:19.633Z,18.18
2022-07-27T09:00:49.934Z,17.87
2022-07-27T09:03:20.551Z,18.03
2022-07-27T09:05:51.232Z,18.03
2022-07-27T09:08:24.800Z,17.98
2022-07-27T09:10:56.400Z,18.30
2022-07-27T09:13:31.176Z,18.51
2022-07-27T09:16:18.680Z,18.31
2022-07-27T09:18:47.922Z,18.56
2022-07-27T09:21:18.747Z,18.70
2022-07-27T09:23:51.069Z,18.42
2022-07-27T09:26:37.034Z,18.46
2022-07-27T09:29:15.584Z,18.67
2022-07-27T09:31:45.806Z,18.66
2022-07-27T09:34:13.866Z,18.76
2022-07-27T09:36:55.965Z,18.61
2022-07-27T09:39:26.815Z,18.61
2022-07-27T09:41:56.057Z,18.54
2022-07-27T09:44:43.406Z,18.77
2022-07-27T09:47:28.385Z,18.53
2022-07-27T09:50:17.473Z,18.34
2022-07-27T09:52:44.857Z,18.45
2022-07-27T09:55:11.877Z,18.42
2022-07-27T09:58:15.518Z,18.53
2022-07-27T10:00:56.425Z,18.37
2022-07-27T10:03:23.325Z,18.42
2022-07-27T10:05:50.285Z,18.34
2022-07-27T10:08:17.084Z,18.27
2022-07-27T10:10:44.955Z,18.36
2022-07-27T10:13:11.766Z,18.29
2022-07-27T10:15:41.593Z,18.27
2022-07-27T10:18:12.572Z,18.37
2022-07-27T10:20:42.458Z,18.29
2022-07-27T10:23:30.216Z,18.19
2022-07-27T10:26:36.425Z,18.31
2022-07-27T10:29:06.094Z,18.36
2022-07-27T10:31:34.605Z,18.29
2022-07-27T10:34:03.943Z,18.13
2022-07-27T10:36:30.655Z,18.18
2022-07-27T10:39:00.562Z,18.23
2022-07-27T10:41:40.114Z,18.17
2022-07-27T10:44:18.526Z,18.05
2022-07-27T10:47:06.294Z,18.17
2022-07-27T10:49:40.330Z,18.04
2022-07-27T10:52:41.755Z,18.14
2022-07-27T10:55:21.964Z,18.21
2022-07-27T10:57:49.124Z,18.10
2022-07-27T11:00:19.672Z,18.22
2022-07-27T11:02:47.007Z,18.23
2022-07-27T11:05:42.683Z,18.17
2022-07-27T11:10:48.437Z,18.12
2022-07-27T11:13:20.634Z,17.99
2022-07-27T11:16:23.899Z,17.97
2022-07-27T11:18:54.748Z,18.04
2022-07-27T11:21:30.455Z,17.99
2022-07-27T11:24:06.209Z,17.99
2022-07-27T11:26:47.445Z,18.13
2022-07-27T11:29:16.023Z,18.09
2022-07-27T11:31:55.484Z,18.14
2022-07-27T11:34:41.817Z,18.18
2022-07-27T11:37:20.109Z,18.28
2022-07-27T11:40:00.511Z,18.17
2022-07-27T11:42:38.377Z,18.27
2022-07-27T11:45:06.645Z,18.31
2022-07-27T11:47:34.309Z,18.31
2022-07-27T11:50:07.429Z,18.28
2022-07-27T11:52:34.395Z,18.25
2022-07-27T11:55:01.286Z,18.33
2022-07-27T11:57:33.030Z,18.20
2022-07-27T11:59:59.806Z,18.18
2022-07-27T12:02:27.447Z,18.14
2022-07-27T12:04:57.802Z,18.23
2022-07-27T12:07:31.117Z,18.23
2022-07-27T12:10:00.195Z,18.22
2022-07-27T12:12:28.865Z,18.10
2022-07-27T12:14:57.467Z,18.19
2022-07-27T12:17:34.806Z,18.15
2022-07-27T12:20:05.874Z,18.08
2022-07-27T12:22:38.633Z,18.10
2022-07-27T12:25:22.146Z,17.95
2022-07-27T12:27:56.918Z,17.91
2022-07-27T12:30:47.627Z,17.89
2022-07-27T12:33:37.840Z,17.95
2022-07-27T12:36:06.677Z,17.93
2022-07-27T12:38:37.716Z,18.03
2022-07-27T12:41:04.448Z,18.02
2022-07-27T12:43:31.744Z,18.12
2022-07-27T12:45:58.647Z,18.15
2022-07-27T12:48:28.823Z,18.16
2022-07-27T12:51:07.057Z,18.17
2022-07-27T12:53:35.749Z,18.11
2022-07-27T12:56:06.355Z,18.14
2022-07-27T12:58:33.313Z,18.18
2022-07-27T13:01:00.289Z,18.10
2022-07-27T13:03:27.095Z,18.12
2022-07-27T13:05:53.829Z,18.12
2022-07-27T13:08:21.546Z,18.11
2022-07-27T13:10:50.147Z,18.13
2022-07-27T13:13:16.897Z,18.13
2022-07-27T13:15:43.748Z,18.12
2022-07-27T13:18:10.485Z,18.11
2022-07-27T13:20:37.205Z,18.15
2022-07-27T13:23:07.848Z,18.19
2022-07-27T13:25:37.253Z,18.09
2022-07-27T13:28:07.966Z,18.12
2022-07-27T13:30:34.927Z,18.11
2022-07-27T13:33:01.705Z,18.17
2022-07-27T13:35:28.554Z,17.99
2022-07-27T13:37:55.356Z,17.76
2022-07-27T13:40:22.374Z,17.82
2022-07-27T13:42:49.106Z,17.82
2022-07-27T13:45:16.207Z,17.77
2022-07-27T13:47:43.025Z,17.64
2022-07-27T13:50:17.890Z,17.78
2022-07-27T13:52:46.493Z,17.88
2022-07-27T13:55:14.734Z,17.85
2022-07-27T13:57:41.605Z,17.79
2022-07-27T14:00:08.969Z,17.98
2022-07-27T14:02:35.985Z,18.06
2022-07-27T14:05:05.901Z,18.08
2022-07-27T14:07:33.317Z,18.02
2022-07-27T14:10:18.604Z,18.09
2022-07-27T14:12:45.378Z,18.13
2022-07-27T14:15:12.176Z,18.04
2022-07-27T14:17:38.955Z,18.07
2022-07-27T14:20:06.455Z,18.16
2022-07-27T14:22:34.364Z,18.15
2022-07-27T14:25:01.076Z,18.20
2022-07-27T14:27:36.578Z,18.14
2022-07-27T14:30:06.799Z,18.20
2022-07-27T14:32:34.524Z,18.09
2022-07-27T14:35:01.548Z,18.02
2022-07-27T14:37:28.465Z,18.05
2022-07-27T14:39:55.269Z,17.99
2022-07-27T14:42:24.064Z,18.07
2022-07-27T14:44:50.889Z,17.95
2022-07-27T14:47:18.124Z,17.81
2022-07-27T14:49:45.342Z,17.98
2022-07-27T14:52:15.528Z,18.09
2022-07-27T14:54:46.723Z,18.12
2022-07-27T14:57:14.406Z,18.04
2022-07-27T14:59:41.564Z,18.08
2022-07-27T15:02:08.724Z,18.08
2022-07-27T15:04:35.904Z,18.18
2022-07-27T15:07:02.965Z,18.02
2022-07-27T15:09:32.923Z,18.10
2022-07-27T15:12:00.525Z,18.14
2022-07-27T15:14:27.745Z,18.18
2022-07-27T15:16:55.261Z,18.16
2022-07-27T15:19:22.583Z,17.96
2022-07-27T15:21:49.544Z,18.03
2022-07-27T15:24:16.568Z,18.26
2022-07-27T15:26:43.491Z,18.36
2022-07-27T15:29:14.892Z,18.29
2022-07-27T15:31:43.091Z,18.25
2022-07-27T15:34:10.662Z,18.28
2022-07-27T15:36:44.711Z,18.28
2022-07-27T15:39:14.842Z,18.33
2022-07-27T15:41:42.103Z,18.17
2022-07-27T15:44:08.905Z,18.27
2022-07-27T15:46:35.849Z,18.29
2022-07-27T15:49:02.863Z,18.32
2022-07-27T15:51:29.928Z,18.39
2022-07-27T15:53:57.390Z,18.39
2022-07-27T15:56:25.150Z,18.42
2022-07-27T15:58:52.202Z,18.43
2022-07-27T16:01:21.138Z,18.28
2022-07-27T16:03:49.245Z,18.30
2022-07-27T16:06:16.529Z,18.46
2022-07-27T16:08:46.433Z,18.34
2022-07-27T16:11:13.244Z,18.39
2022-07-27T16:13:40.305Z,18.70
2022-07-27T16:16:22.667Z,18.76
2022-07-27T16:18:51.523Z,18.71
2022-07-27T16:21:19.743Z,18.66
2022-07-27T16:23:46.964Z,18.68
2022-07-27T16:26:14.023Z,18.76
2022-07-27T16:28:44.025Z,18.62
2022-07-27T16:31:13.986Z,18.70
2022-07-27T16:33:44.325Z,18.76
2022-07-27T16:36:12.627Z,18.71
2022-07-27T16:38:49.810Z,18.66
2022-07-27T16:41:19.190Z,18.54
2022-07-27T16:43:46.271Z,18.45
2022-07-27T16:46:13.270Z,18.36
2022-07-27T16:48:42.025Z,18.33
2022-07-27T16:51:11.726Z,18.36
2022-07-27T16:53:43.102Z,18.31
2022-07-27T16:56:10.463Z,18.43
2022-07-27T16:58:37.960Z,18.43
2022-07-27T17:01:05.343Z,18.44
2022-07-27T17:03:32.232Z,18.49
2022-07-27T17:06:05.096Z,18.38
2022-07-27T17:08:32.658Z,18.23
2022-07-27T17:11:02.405Z,18.07
2022-07-27T17:13:33.409Z,18.01
2022-07-27T17:16:05.168Z,17.87
2022-07-27T17:18:38.979Z,17.54
2022-07-27T17:21:07.625Z,17.53
2022-07-27T17:23:38.309Z,17.54
2022-07-27T17:26:09.835Z,17.49
2022-07-27T17:28:39.526Z,17.54
2022-07-27T17:31:08.900Z,17.56
2022-07-27T17:33:36.062Z,17.49
2022-07-27T17:36:03.131Z,17.52
2022-07-27T17:38:29.926Z,17.51
2022-07-27T17:40:56.878Z,17.51
2022-07-27T17:43:23.664Z,17.53
2022-07-27T17:45:50.549Z,17.54
2022-07-27T17:48:17.443Z,17.51
2022-07-27T17:50:44.269Z,17.50
2022-07-27T17:53:11.124Z,17.34
2022-07-27T17:55:38.043Z,17.30
2022-07-27T17:58:04.918Z,17.32
2022-07-27T18:00:32.090Z,17.38
2022-07-27T18:02:58.963Z,17.29
2022-07-27T18:05:25.813Z,17.19
2022-07-27T18:07:53.965Z,17.20
2022-07-27T18:10:21.446Z,17.13
2022-07-27T18:12:48.397Z,17.11
2022-07-27T18:15:34.163Z,17.09
2022-07-27T18:18:00.964Z,17.03
2022-07-27T18:20:27.951Z,17.04
2022-07-27T18:22:54.865Z,17.01
2022-07-27T18:25:22.412Z,16.96
2022-07-27T18:27:50.268Z,16.93
2022-07-27T18:30:17.924Z,16.86
2022-07-27T18:32:45.633Z,16.81
2022-07-27T18:35:13.088Z,16.79
2022-07-27T18:37:40.090Z,16.76
2022-07-27T18:40:09.245Z,16.73
2022-07-27T18:42:36.546Z,16.63
2022-07-27T18:45:04.124Z,16.66
2022-07-27T18:47:30.772Z,16.67
2022-07-27T18:49:57.544Z,16.60
2022-07-27T18:52:24.745Z,16.55
2022-07-27T18:54:51.645Z,16.57
2022-07-27T18:57:20.245Z,16.39
2022-07-27T18:59:50.524Z,16.34
2022-07-27T19:02:17.667Z,16.35
2022-07-27T19:04:44.516Z,16.38
2022-07-27T19:07:13.831Z,16.33
2022-07-27T19:09:42.747Z,16.32
2022-07-27T19:12:10.041Z,16.31
2022-07-27T19:14:37.255Z,16.25
2022-07-27T19:17:04.090Z,16.34
2022-07-27T19:19:31.482Z,16.31
2022-07-27T19:21:58.480Z,16.32
2022-07-27T19:24:25.319Z,16.26
2022-07-27T19:26:52.214Z,16.35
2022-07-27T19:29:21.246Z,16.42
2022-07-27T19:31:48.242Z,16.49
2022-07-27T19:34:15.065Z,16.45
2022-07-27T19:36:41.945Z,16.33
2022-07-27T19:39:08.713Z,16.30
2022-07-27T19:41:36.206Z,16.12
2022-07-27T19:44:04.587Z,16.03
2022-07-27T19:46:31.883Z,15.85
2022-07-27T19:48:59.113Z,15.79
2022-07-27T19:51:26.469Z,15.79
2022-07-27T19:53:53.767Z,15.81
2022-07-27T19:56:20.702Z,15.83
2022-07-27T19:58:47.912Z,15.89
2022-07-27T20:01:14.665Z,15.96
2022-07-27T20:03:52.455Z,15.97
2022-07-27T20:06:24.233Z,16.01
2022-07-27T20:08:51.646Z,15.99
2022-07-27T20:11:18.390Z,15.93
2022-07-27T20:13:45.078Z,15.95
2022-07-27T20:16:12.885Z,15.81
2022-07-27T20:18:39.713Z,15.86
2022-07-27T20:21:22.524Z,15.98
2022-07-27T20:23:52.295Z,15.85
2022-07-27T20:26:19.678Z,15.78
2022-07-27T20:28:47.262Z,15.87
2022-07-27T20:31:14.757Z,15.95
2022-07-27T20:33:42.115Z,15.95
2022-07-27T20:36:08.954Z,15.92
2022-07-27T20:38:35.954Z,15.87
2022-07-27T20:41:02.810Z,15.86
2022-07-27T20:43:29.646Z,15.84
2022-07-27T20:45:56.663Z,15.87
2022-07-27T20:48:23.493Z,15.82
2022-07-27T20:50:51.274Z,15.84
2022-07-27T20:53:20.316Z,15.80
2022-07-27T20:55:47.748Z,15.81
2022-07-27T20:58:14.502Z,15.84
2022-07-27T21:00:41.591Z,15.82
2022-07-27T21:03:08.721Z,15.71
2022-07-27T21:05:35.587Z,15.73
2022-07-27T21:08:02.358Z,15.74
2022-07-27T21:10:29.200Z,15.84
2022-07-27T21:12:55.998Z,15.86
2022-07-27T21:15:22.795Z,15.83
2022-07-27T21:18:00.616Z,15.82
2022-07-27T21:20:27.638Z,15.79
2022-07-27T21:23:13.208Z,15.73
2022-07-27T21:25:40.694Z,15.68
2022-07-27T21:28:07.596Z,15.69
2022-07-27T21:30:36.517Z,15.75
2022-07-27T21:33:03.289Z,15.75
2022-07-27T21:35:30.021Z,15.80
2022-07-27T21:37:56.625Z,15.78
2022-07-27T21:40:23.284Z,15.77
2022-07-27T21:42:49.911Z,15.81
2022-07-27T21:45:16.645Z,15.68
2022-07-27T21:47:43.256Z,15.63
2022-07-27T21:50:10.031Z,15.64
2022-07-27T21:52:36.693Z,15.62
2022-07-27T21:55:03.508Z,15.55
2022-07-27T21:57:30.192Z,15.58
2022-07-27T21:59:56.830Z,15.64
2022-07-27T22:02:23.559Z,15.67
2022-07-27T22:04:54.916Z,15.60
2022-07-27T22:07:22.323Z,15.75
2022-07-27T22:09:48.946Z,15.77
2022-07-27T22:12:15.615Z,15.82
2022-07-27T22:14:42.227Z,15.84
2022-07-27T22:17:09.029Z,15.76
2022-07-27T22:19:35.667Z,15.71
2022-07-27T22:22:02.347Z,15.62
2022-07-27T22:24:28.938Z,15.66
2022-07-27T22:26:55.670Z,15.73
2022-07-27T22:29:22.308Z,15.77
2022-07-27T22:31:49.023Z,15.81
2022-07-27T22:34:16.286Z,15.80
2022-07-27T22:36:43.138Z,15.72
2022-07-27T22:39:09.850Z,15.77
2022-07-27T22:41:36.582Z,15.86
2022-07-27T22:44:03.188Z,15.85
2022-07-27T22:46:33.287Z,15.83
2022-07-27T22:49:00.010Z,15.78
2022-07-27T22:51:26.697Z,15.69
2022-07-27T22:54:13.601Z,15.70
2022-07-27T22:56:40.473Z,15.72
2022-07-27T22:59:07.141Z,15.78
2022-07-27T23:01:46.616Z,15.73
2022-07-27T23:04:14.935Z,15.78
2022-07-27T23:06:42.589Z,15.77
2022-07-27T23:09:09.191Z,15.82
2022-07-27T23:11:35.911Z,15.83
2022-07-27T23:14:02.794Z,15.75
2022-07-27T23:16:29.479Z,15.69
2022-07-27T23:18:56.182Z,15.78
2022-07-27T23:21:22.815Z,15.79
2022-07-27T23:23:53.458Z,15.81
2022-07-27T23:26:26.110Z,15.76
2022-07-27T23:28:53.818Z,15.77
2022-07-27T23:31:21.102Z,15.80
2022-07-27T23:33:47.809Z,15.82
2022-07-27T23:36:14.502Z,15.74
2022-07-27T23:38:41.482Z,15.81
2022-07-27T23:41:08.410Z,15.85
2022-07-27T23:43:35.065Z,15.84
2022-07-27T23:46:02.874Z,15.87
2022-07-27T23:48:29.497Z,15.84
2022-07-27T23:50:56.227Z,15.88
2022-07-27T23:53:23.967Z,15.94
2022-07-27T23:55:50.758Z,15.85
2022-07-27T23:58:17.355Z,15.92
